KBJC/BJC METAR and TAF weather

Enter ICAO airport designator
Station Type Date Time Source
KBJC METAR 2019/06/26 17:50 UTC NOAA

KBJC 261750Z 16005KT 10SM FEW150 BKN220 29/04 A3007


Station Type Date Time Source
KBJC Decoded METAR 2019/06/26 17:50 UTC NOAA

Broomfield / Jeffco, CO, United States (KBJC) 39-55N 105-07W
Jun 26, 2019 - 01:50 PM EDT / 2019.06.26 1750 UTC
Wind: from the SSE (160 degrees) at 6 MPH (5 KT):0
Visibility: 10 mile(s):0
Sky conditions: mostly cloudy
Temperature: 84 F (29 C)
Dew Point: 39 F (4 C)
Relative Humidity: 20%
Pressure (altimeter): 30.07 in. Hg (1018 hPa)
ob: KBJC 261750Z 16005KT 10SM FEW150 BKN220 29/04 A3007
cycle: 18

Station Type Date Time Source
KBJC TAF 2019/06/26 18:22 UTC NOAA

TAF KBJC 261720Z 2618/2718 VRB04KT P6SM FEW150 BKN220
FM262000 12011KT P6SM VCSH FEW090 BKN180
FM270100 16009KT P6SM FEW100 BKN150
FM270400 25007KT P6SM FEW150
FM271700 24012KT P6SM FEW150 FEW220

Example: see airport list